createdAt,value
2022-10-13T00:00:51.914Z,8.10
2022-10-13T00:03:20.257Z,8.10
2022-10-13T00:05:49.878Z,8.10
2022-10-13T00:08:19.760Z,8.10
2022-10-13T00:10:49.698Z,8.20
2022-10-13T00:13:19.782Z,8.00
2022-10-13T00:15:48.846Z,8.00
2022-10-13T00:18:17.430Z,8.00
2022-10-13T00:20:47.449Z,7.90
2022-10-13T00:23:16.156Z,8.00
2022-10-13T00:25:45.357Z,8.00
2022-10-13T00:28:14.537Z,8.00
2022-10-13T00:30:44.095Z,8.00
2022-10-13T00:33:13.423Z,8.00
2022-10-13T00:35:42.299Z,8.00
2022-10-13T00:38:10.340Z,8.00
2022-10-13T00:40:45.172Z,7.90
2022-10-13T00:43:18.576Z,7.90
2022-10-13T00:45:50.638Z,7.80
2022-10-13T00:48:20.208Z,7.90
2022-10-13T00:50:48.492Z,7.90
2022-10-13T00:53:18.080Z,7.90
2022-10-13T00:55:48.433Z,8.00
2022-10-13T00:58:19.499Z,8.10
2022-10-13T01:00:51.032Z,8.10
2022-10-13T01:03:20.385Z,8.20
2022-10-13T01:05:49.685Z,8.20
2022-10-13T01:08:19.021Z,8.20
2022-10-13T01:10:57.964Z,8.20
2022-10-13T01:13:36.549Z,8.20
2022-10-13T01:16:13.497Z,8.20
2022-10-13T01:18:51.941Z,8.20
2022-10-13T01:21:30.136Z,8.30
2022-10-13T01:24:40.262Z,8.40
2022-10-13T01:27:47.370Z,8.40
2022-10-13T01:30:18.972Z,8.40
2022-10-13T01:33:06.827Z,8.40
2022-10-13T01:35:56.797Z,8.40
2022-10-13T01:38:34.396Z,8.50
2022-10-13T01:41:11.098Z,8.50
2022-10-13T01:43:43.915Z,8.50
2022-10-13T01:46:16.654Z,8.60
2022-10-13T01:48:46.238Z,8.60
2022-10-13T01:51:18.887Z,8.70
2022-10-13T01:53:48.579Z,8.70
2022-10-13T01:56:16.822Z,8.70
2022-10-13T01:58:45.613Z,8.70
2022-10-13T02:01:33.706Z,8.80
2022-10-13T02:04:11.515Z,8.80
2022-10-13T02:06:44.949Z,8.80
2022-10-13T02:09:20.907Z,8.80
2022-10-13T02:11:53.421Z,8.90
2022-10-13T02:14:26.314Z,8.90
2022-10-13T02:16:56.984Z,9.00
2022-10-13T02:19:25.361Z,9.00
2022-10-13T02:21:54.389Z,9.10
2022-10-13T02:24:22.555Z,9.20
2022-10-13T02:26:52.270Z,9.20
2022-10-13T02:29:20.363Z,9.20
2022-10-13T02:31:48.252Z,9.20
2022-10-13T02:34:17.902Z,9.20
2022-10-13T02:36:45.774Z,9.20
2022-10-13T02:39:13.820Z,9.20
2022-10-13T02:41:41.723Z,9.20
2022-10-13T02:44:09.690Z,9.20
2022-10-13T02:46:37.653Z,9.20
2022-10-13T02:49:05.574Z,9.10
2022-10-13T02:51:39.080Z,9.20
2022-10-13T02:54:08.173Z,9.20
2022-10-13T02:56:36.049Z,9.30
2022-10-13T02:59:03.983Z,9.20
2022-10-13T03:01:31.964Z,9.30
2022-10-13T03:03:59.861Z,9.30
2022-10-13T03:06:27.817Z,9.30
2022-10-13T03:08:57.035Z,9.30
2022-10-13T03:11:25.047Z,9.30
2022-10-13T03:13:53.054Z,9.40
2022-10-13T03:16:21.074Z,9.40
2022-10-13T03:18:48.995Z,9.40
2022-10-13T03:21:16.858Z,9.60
2022-10-13T03:23:44.753Z,9.60
2022-10-13T03:26:15.530Z,9.60
2022-10-13T03:28:43.598Z,9.60
2022-10-13T03:31:13.276Z,9.70
2022-10-13T03:33:42.003Z,9.70
2022-10-13T03:36:11.788Z,9.70
2022-10-13T03:38:40.031Z,9.70
2022-10-13T03:41:09.771Z,9.70
2022-10-13T03:43:39.438Z,9.70
2022-10-13T03:46:08.931Z,9.70
2022-10-13T03:48:37.753Z,9.70
2022-10-13T03:51:07.381Z,9.80
2022-10-13T03:53:36.010Z,9.80
2022-10-13T03:56:05.342Z,9.80
2022-10-13T03:58:33.481Z,9.80
2022-10-13T04:01:05.473Z,9.80
2022-10-13T04:03:33.897Z,9.80
2022-10-13T04:06:02.755Z,9.70
2022-10-13T04:08:31.267Z,9.80
2022-10-13T04:11:03.055Z,9.80
2022-10-13T04:13:31.100Z,9.80
2022-10-13T04:16:04.596Z,9.80
2022-10-13T04:18:32.828Z,9.80
2022-10-13T04:21:01.065Z,9.80
2022-10-13T04:23:36.454Z,9.80
2022-10-13T04:26:07.967Z,9.80
2022-10-13T04:28:37.367Z,9.80
2022-10-13T04:31:06.774Z,9.90
2022-10-13T04:33:34.760Z,9.90
2022-10-13T04:36:05.361Z,9.90
2022-10-13T04:38:33.410Z,9.80
2022-10-13T04:41:04.122Z,9.80
2022-10-13T04:43:32.324Z,9.90
2022-10-13T04:46:03.896Z,9.90
2022-10-13T04:48:33.423Z,10.00
2022-10-13T04:51:02.443Z,10.10
2022-10-13T04:53:30.628Z,10.00
2022-10-13T04:56:01.652Z,10.00
2022-10-13T04:58:30.033Z,10.00
2022-10-13T05:00:58.195Z,10.00
2022-10-13T05:03:26.227Z,10.10
2022-10-13T05:05:55.539Z,10.10
2022-10-13T05:08:23.473Z,10.10
2022-10-13T05:10:57.063Z,10.10
2022-10-13T05:13:26.178Z,10.10
2022-10-13T05:15:54.547Z,10.20
2022-10-13T05:18:22.656Z,10.20
2022-10-13T05:20:50.597Z,10.20
2022-10-13T05:23:20.506Z,10.20
2022-10-13T05:25:48.458Z,10.20
2022-10-13T05:28:16.436Z,10.20
2022-10-13T05:30:44.383Z,10.20
2022-10-13T05:33:12.244Z,10.30
2022-10-13T05:35:40.122Z,10.30
2022-10-13T05:38:07.988Z,10.20
2022-10-13T05:40:37.302Z,10.20
2022-10-13T05:43:05.444Z,10.20
2022-10-13T05:45:34.415Z,10.20
2022-10-13T05:48:02.284Z,10.20
2022-10-13T05:50:30.305Z,10.20
2022-10-13T05:52:58.504Z,10.20
2022-10-13T05:55:26.696Z,10.20
2022-10-13T05:57:56.150Z,10.30
2022-10-13T06:00:24.664Z,10.20
2022-10-13T06:02:58.227Z,10.20
2022-10-13T06:05:28.404Z,10.30
2022-10-13T06:07:56.495Z,10.20
2022-10-13T06:10:24.789Z,10.30
2022-10-13T06:12:52.731Z,10.30
2022-10-13T06:15:27.112Z,10.40
2022-10-13T06:17:55.980Z,10.40
2022-10-13T06:20:24.008Z,10.40
2022-10-13T06:22:51.919Z,10.40
2022-10-13T06:25:19.800Z,10.40
2022-10-13T06:27:47.735Z,10.50
2022-10-13T06:30:15.749Z,10.50
2022-10-13T06:32:45.018Z,10.50
2022-10-13T06:35:12.904Z,10.50
2022-10-13T06:37:40.798Z,10.60
2022-10-13T06:40:09.816Z,10.60
2022-10-13T06:42:37.793Z,10.60
2022-10-13T06:45:06.307Z,10.60
2022-10-13T06:47:34.377Z,10.60
2022-10-13T06:50:03.677Z,10.60
2022-10-13T06:52:31.590Z,10.60
2022-10-13T06:54:59.460Z,10.70
2022-10-13T06:57:27.446Z,10.80
2022-10-13T06:59:55.382Z,10.80
2022-10-13T07:02:23.443Z,10.70
2022-10-13T07:04:51.366Z,10.70
2022-10-13T07:07:20.713Z,10.80
2022-10-13T07:09:49.366Z,10.80
2022-10-13T07:12:17.873Z,10.80
2022-10-13T07:14:46.049Z,10.90
2022-10-13T07:17:13.969Z,10.90
2022-10-13T07:19:41.929Z,11.00
2022-10-13T07:22:09.805Z,11.00
2022-10-13T07:24:39.029Z,11.10
2022-10-13T07:27:08.004Z,11.10
2022-10-13T07:29:36.167Z,11.20
2022-10-13T07:32:04.294Z,11.30
2022-10-13T07:34:32.205Z,11.30
2022-10-13T07:37:00.173Z,11.30
2022-10-13T07:39:28.082Z,11.30
2022-10-13T07:41:57.376Z,11.40
2022-10-13T07:44:25.353Z,11.40
2022-10-13T07:46:53.269Z,11.40
2022-10-13T07:49:21.165Z,11.40
2022-10-13T07:51:49.083Z,11.40
2022-10-13T07:54:21.460Z,11.40
2022-10-13T07:56:52.985Z,11.40
2022-10-13T07:59:22.620Z,11.50
2022-10-13T08:01:50.632Z,11.60
2022-10-13T08:04:18.584Z,11.60
2022-10-13T08:06:46.575Z,11.60
2022-10-13T08:09:14.460Z,11.60
2022-10-13T08:11:42.337Z,11.50
2022-10-13T08:14:13.091Z,11.50
2022-10-13T08:16:48.569Z,11.50
2022-10-13T08:19:22.009Z,11.50
2022-10-13T08:21:59.871Z,11.40
2022-10-13T08:24:28.522Z,11.50
2022-10-13T08:26:57.214Z,11.50
2022-10-13T08:29:25.235Z,11.50
2022-10-13T08:31:56.275Z,11.50
2022-10-13T08:34:24.950Z,11.50
2022-10-13T08:36:56.145Z,11.40
2022-10-13T08:39:24.884Z,11.50
2022-10-13T08:41:54.217Z,11.50
2022-10-13T08:47:25.674Z,11.70
2022-10-13T08:49:59.152Z,11.80
2022-10-13T08:52:30.967Z,11.90
2022-10-13T08:54:59.388Z,11.90
2022-10-13T08:57:27.468Z,11.90
2022-10-13T08:59:55.879Z,12.00
2022-10-13T09:02:30.336Z,12.00
2022-10-13T09:05:00.869Z,12.00
2022-10-13T09:07:32.355Z,11.90
2022-10-13T09:10:00.228Z,12.00
2022-10-13T09:12:28.556Z,12.00
2022-10-13T09:15:03.308Z,12.10
2022-10-13T09:17:34.074Z,12.00
2022-10-13T09:20:05.049Z,11.90
2022-10-13T09:22:35.016Z,11.90
2022-10-13T09:25:10.492Z,11.90
2022-10-13T09:27:46.116Z,11.90
2022-10-13T09:30:33.775Z,11.90
2022-10-13T09:33:20.045Z,11.90
2022-10-13T09:35:50.095Z,11.90
2022-10-13T09:38:20.913Z,11.90
2022-10-13T09:41:00.393Z,11.90
2022-10-13T09:43:32.019Z,11.90
2022-10-13T09:46:01.840Z,11.90
2022-10-13T09:48:33.858Z,11.90
2022-10-13T09:51:02.760Z,11.90
2022-10-13T09:53:33.359Z,11.90
2022-10-13T09:56:19.071Z,11.90
2022-10-13T09:58:53.125Z,11.90
2022-10-13T10:01:25.654Z,11.90
2022-10-13T10:03:56.037Z,11.90
2022-10-13T10:06:27.698Z,11.90
2022-10-13T10:09:04.162Z,12.00
2022-10-13T10:11:36.189Z,12.00
2022-10-13T10:14:15.535Z,12.10
2022-10-13T10:16:47.736Z,12.20
2022-10-13T10:19:21.492Z,12.30
2022-10-13T10:21:55.455Z,12.40
2022-10-13T10:24:31.070Z,12.40
2022-10-13T10:27:02.816Z,12.40
2022-10-13T10:29:41.806Z,12.40
2022-10-13T10:32:21.834Z,12.30
2022-10-13T10:34:55.712Z,12.30
2022-10-13T10:37:41.042Z,12.30
2022-10-13T10:40:22.269Z,12.30
2022-10-13T10:43:21.496Z,12.30
2022-10-13T10:45:49.816Z,12.40
2022-10-13T10:48:23.253Z,12.40
2022-10-13T10:50:54.036Z,12.40
2022-10-13T10:53:30.217Z,12.40
2022-10-13T10:56:04.618Z,12.30
2022-10-13T10:58:40.725Z,12.30
2022-10-13T11:01:19.435Z,12.30
2022-10-13T11:03:55.960Z,12.30
2022-10-13T11:06:33.874Z,12.20
2022-10-13T11:09:02.925Z,12.20
2022-10-13T11:11:39.428Z,12.20
2022-10-13T11:14:37.926Z,12.20
2022-10-13T11:17:20.792Z,12.20
2022-10-13T11:19:49.999Z,12.20
2022-10-13T11:22:21.399Z,12.20
2022-10-13T11:25:17.940Z,12.20
2022-10-13T11:27:46.145Z,12.30
2022-10-13T11:30:47.458Z,12.30
2022-10-13T11:33:57.377Z,12.30
2022-10-13T11:36:40.367Z,12.40
2022-10-13T11:39:53.051Z,12.40
2022-10-13T11:42:52.338Z,12.40
2022-10-13T11:45:46.519Z,12.40
2022-10-13T11:48:47.815Z,12.50
2022-10-13T11:51:31.865Z,12.50
2022-10-13T11:54:11.789Z,12.50
2022-10-13T11:56:49.010Z,12.50
2022-10-13T11:59:22.602Z,12.50
2022-10-13T12:01:55.205Z,12.50
2022-10-13T12:04:25.213Z,12.50
2022-10-13T12:07:00.352Z,12.50
2022-10-13T12:09:28.638Z,12.50
2022-10-13T12:12:03.854Z,12.60
2022-10-13T12:14:39.921Z,12.70
2022-10-13T12:17:23.596Z,12.70
2022-10-13T12:19:54.596Z,12.70
2022-10-13T12:22:23.010Z,12.70
2022-10-13T12:25:01.348Z,12.70
2022-10-13T12:27:33.553Z,12.80
2022-10-13T12:30:02.319Z,12.70
2022-10-13T12:32:32.131Z,12.80
2022-10-13T12:35:16.482Z,12.80
2022-10-13T12:37:44.579Z,12.80
2022-10-13T12:40:15.615Z,12.80
2022-10-13T12:42:45.854Z,12.80
2022-10-13T12:45:17.109Z,12.80
2022-10-13T12:47:50.918Z,12.70
2022-10-13T12:50:36.777Z,12.70
2022-10-13T12:53:15.514Z,12.90
2022-10-13T12:55:58.611Z,13.00
2022-10-13T12:58:30.238Z,13.20
2022-10-13T13:01:10.267Z,13.50
2022-10-13T13:03:39.892Z,13.70
2022-10-13T13:06:22.322Z,13.80
2022-10-13T13:09:22.692Z,13.90
2022-10-13T13:12:03.957Z,13.80
2022-10-13T13:14:40.845Z,13.80
2022-10-13T13:17:13.526Z,13.70
2022-10-13T13:19:43.136Z,13.60
2022-10-13T13:22:11.659Z,13.50
2022-10-13T13:24:40.579Z,13.50
2022-10-13T13:27:24.169Z,13.50
2022-10-13T13:29:54.473Z,13.40
2022-10-13T13:32:24.624Z,13.40
2022-10-13T13:34:52.524Z,13.40
2022-10-13T13:37:31.571Z,13.40
2022-10-13T13:40:00.269Z,13.40
2022-10-13T13:42:30.900Z,13.40
2022-10-13T13:45:00.177Z,13.40
2022-10-13T13:47:29.461Z,13.30
2022-10-13T13:49:58.401Z,13.40
2022-10-13T13:52:26.585Z,13.30
2022-10-13T13:54:56.102Z,13.30
2022-10-13T13:57:24.089Z,13.30
2022-10-13T13:59:52.398Z,13.30
2022-10-13T14:02:22.853Z,13.40
2022-10-13T14:04:50.796Z,13.30
2022-10-13T14:07:20.236Z,13.20
2022-10-13T14:09:53.784Z,13.20
2022-10-13T14:12:24.050Z,13.10
2022-10-13T14:14:53.142Z,13.10
2022-10-13T14:17:22.432Z,13.10
2022-10-13T14:19:50.405Z,13.10
2022-10-13T14:22:18.570Z,13.00
2022-10-13T14:24:46.445Z,13.10
2022-10-13T14:27:14.357Z,13.00
2022-10-13T14:29:42.285Z,13.00
2022-10-13T14:32:10.261Z,13.00
2022-10-13T14:34:39.548Z,13.10
2022-10-13T14:37:07.504Z,13.00
2022-10-13T14:39:35.369Z,13.00
2022-10-13T14:42:03.240Z,13.00
2022-10-13T14:44:31.109Z,13.00
2022-10-13T14:46:58.982Z,13.00
2022-10-13T14:49:26.967Z,13.00
2022-10-13T14:51:56.298Z,13.00
2022-10-13T14:54:24.615Z,12.90
2022-10-13T14:56:52.538Z,12.90
2022-10-13T14:59:20.658Z,12.90
2022-10-13T15:01:50.120Z,12.90
2022-10-13T15:04:17.982Z,12.90
2022-10-13T15:06:45.879Z,12.90
2022-10-13T15:09:15.153Z,12.90
2022-10-13T15:11:43.134Z,12.80
2022-10-13T15:14:11.004Z,12.70
2022-10-13T15:16:38.897Z,12.70
2022-10-13T15:19:07.068Z,12.60
2022-10-13T15:21:35.390Z,12.50
2022-10-13T15:24:03.472Z,12.50
2022-10-13T15:26:33.648Z,12.50
2022-10-13T15:29:01.566Z,12.60
2022-10-13T15:31:30.925Z,12.60
2022-10-13T15:33:58.846Z,12.60
2022-10-13T15:36:26.939Z,12.60
2022-10-13T15:38:54.953Z,12.60
2022-10-13T15:41:24.389Z,12.60
2022-10-13T15:43:53.727Z,12.70
2022-10-13T15:46:26.212Z,12.60
2022-10-13T15:48:55.382Z,12.70
2022-10-13T15:51:26.859Z,12.70
2022-10-13T15:53:55.175Z,12.70
2022-10-13T15:56:23.095Z,12.60
2022-10-13T15:58:51.088Z,12.70
2022-10-13T16:01:20.428Z,12.70
2022-10-13T16:03:48.364Z,12.70
2022-10-13T16:06:16.355Z,12.70
2022-10-13T16:08:44.744Z,12.70
2022-10-13T16:11:14.769Z,12.60
2022-10-13T16:13:45.867Z,12.60
2022-10-13T16:16:14.014Z,12.50
2022-10-13T16:18:43.810Z,12.50
2022-10-13T16:21:18.307Z,12.50
2022-10-13T16:23:46.997Z,12.50
2022-10-13T16:26:17.305Z,12.50
2022-10-13T16:28:45.705Z,12.50
2022-10-13T16:31:15.510Z,12.50
2022-10-13T16:33:46.512Z,12.50
2022-10-13T16:36:16.201Z,12.40
2022-10-13T16:38:44.819Z,12.40
2022-10-13T16:41:15.071Z,12.30
2022-10-13T16:43:43.170Z,12.30
2022-10-13T16:46:13.953Z,12.30
2022-10-13T16:48:42.834Z,12.20
2022-10-13T16:51:15.695Z,12.20
2022-10-13T16:53:43.816Z,12.10
2022-10-13T16:56:11.944Z,12.10
2022-10-13T16:58:44.855Z,12.10
2022-10-13T17:01:13.601Z,12.00
2022-10-13T17:03:45.259Z,12.00
2022-10-13T17:06:15.697Z,12.00
2022-10-13T17:08:44.457Z,12.00
2022-10-13T17:11:17.640Z,12.00
2022-10-13T17:13:45.773Z,11.90
2022-10-13T17:16:13.737Z,11.90
2022-10-13T17:18:41.685Z,11.90
2022-10-13T17:21:11.111Z,11.90
2022-10-13T17:23:43.549Z,11.80
2022-10-13T17:26:16.416Z,11.80
2022-10-13T17:28:44.675Z,11.70
2022-10-13T17:31:16.296Z,11.80
2022-10-13T17:33:45.326Z,11.70
2022-10-13T17:36:15.233Z,11.70
2022-10-13T17:38:45.101Z,11.70
2022-10-13T17:41:13.251Z,11.70
2022-10-13T17:43:41.844Z,11.70
2022-10-13T17:46:34.945Z,11.70
2022-10-13T17:49:01.203Z,11.70
2022-10-13T17:51:29.237Z,11.70
2022-10-13T17:54:00.402Z,11.70
2022-10-13T17:56:28.868Z,11.70
2022-10-13T17:58:57.337Z,11.70
2022-10-13T18:01:27.022Z,11.70
2022-10-13T18:03:56.628Z,11.70
2022-10-13T18:06:25.168Z,11.70
2022-10-13T18:08:53.392Z,11.70
2022-10-13T18:11:24.482Z,11.70
2022-10-13T18:13:53.119Z,11.70
2022-10-13T18:16:22.831Z,11.70
2022-10-13T18:18:51.833Z,11.70
2022-10-13T18:21:22.500Z,11.70
2022-10-13T18:23:50.597Z,11.60
2022-10-13T18:26:20.064Z,11.60
2022-10-13T18:28:50.431Z,11.60
2022-10-13T18:31:20.262Z,11.60
2022-10-13T18:33:48.989Z,11.60
2022-10-13T18:36:19.979Z,11.60
2022-10-13T18:38:48.328Z,11.60
2022-10-13T18:41:17.302Z,11.60
2022-10-13T18:43:45.226Z,11.60
2022-10-13T18:46:14.782Z,11.60
2022-10-13T18:48:42.898Z,11.60
2022-10-13T18:51:12.566Z,11.50
2022-10-13T18:53:41.947Z,11.50
2022-10-13T18:56:12.457Z,11.50
2022-10-13T18:58:40.620Z,11.50
2022-10-13T19:01:10.621Z,11.50
2022-10-13T19:03:41.823Z,11.50
2022-10-13T19:06:11.812Z,11.50
2022-10-13T19:08:39.897Z,11.50
2022-10-13T19:11:14.512Z,11.50
2022-10-13T19:13:44.105Z,11.50
2022-10-13T19:16:13.246Z,11.50
2022-10-13T19:18:42.806Z,11.50
2022-10-13T19:21:11.648Z,11.50
2022-10-13T19:23:39.963Z,11.50
2022-10-13T19:26:12.564Z,11.50
2022-10-13T19:28:43.430Z,11.50
2022-10-13T19:31:12.538Z,11.50
2022-10-13T19:33:44.713Z,11.50
2022-10-13T19:36:20.912Z,11.50
2022-10-13T19:38:48.819Z,11.50
2022-10-13T19:41:16.731Z,11.50
2022-10-13T19:43:44.647Z,11.50
2022-10-13T19:46:12.671Z,11.50
2022-10-13T19:48:41.949Z,11.40
2022-10-13T19:51:11.227Z,11.40
2022-10-13T19:53:39.720Z,11.40
2022-10-13T19:56:08.514Z,11.40
2022-10-13T19:58:36.435Z,11.40
2022-10-13T20:01:06.728Z,11.30
2022-10-13T20:03:34.866Z,11.30
2022-10-13T20:06:06.808Z,11.30
2022-10-13T20:08:34.715Z,11.30
2022-10-13T20:11:07.522Z,11.40
2022-10-13T20:13:35.456Z,11.30
2022-10-13T20:16:07.111Z,11.30
2022-10-13T20:18:35.788Z,11.30
2022-10-13T20:21:05.904Z,11.20
2022-10-13T20:23:34.526Z,11.20
2022-10-13T20:26:07.592Z,11.10
2022-10-13T20:28:40.495Z,10.90
2022-10-13T20:31:11.495Z,10.90
2022-10-13T20:33:40.047Z,10.90
2022-10-13T20:36:13.003Z,10.80
2022-10-13T20:38:40.949Z,10.80
2022-10-13T20:41:10.395Z,10.80
2022-10-13T20:43:38.261Z,10.90
2022-10-13T20:46:07.627Z,10.80
2022-10-13T20:49:05.233Z,10.80
2022-10-13T20:51:26.915Z,10.70
2022-10-13T20:53:54.811Z,10.70
2022-10-13T20:56:24.616Z,10.70
2022-10-13T20:58:53.233Z,10.70
2022-10-13T21:01:23.460Z,10.80
2022-10-13T21:03:54.448Z,10.80
2022-10-13T21:06:23.724Z,10.90
2022-10-13T21:08:53.674Z,10.90
2022-10-13T21:11:23.119Z,10.90
2022-10-13T21:13:52.285Z,10.90
2022-10-13T21:16:22.139Z,10.90
2022-10-13T21:18:52.584Z,10.90
2022-10-13T21:21:22.258Z,10.90
2022-10-13T21:23:52.205Z,10.90
2022-10-13T21:26:22.145Z,10.90
2022-10-13T21:28:51.508Z,10.80
2022-10-13T21:31:20.897Z,10.80
2022-10-13T21:33:49.687Z,10.90
2022-10-13T21:36:20.017Z,10.90
2022-10-13T21:38:50.912Z,10.90
2022-10-13T21:41:20.391Z,10.90
2022-10-13T21:43:48.487Z,10.90
2022-10-13T21:46:19.409Z,10.90
2022-10-13T21:48:48.427Z,10.90
2022-10-13T21:51:18.349Z,11.00
2022-10-13T21:53:50.019Z,11.00
2022-10-13T21:56:18.287Z,11.00
2022-10-13T21:58:49.105Z,11.00
2022-10-13T22:01:18.937Z,10.90
2022-10-13T22:03:48.000Z,11.00
2022-10-13T22:06:19.379Z,11.00
2022-10-13T22:08:49.479Z,11.10
2022-10-13T22:11:18.401Z,11.10
2022-10-13T22:13:47.942Z,11.10
2022-10-13T22:16:18.313Z,11.10
2022-10-13T22:18:46.408Z,11.10
2022-10-13T22:21:16.248Z,11.20
2022-10-13T22:23:44.814Z,11.10
2022-10-13T22:26:13.416Z,11.20
2022-10-13T22:28:41.551Z,11.20
2022-10-13T22:31:14.026Z,11.20
2022-10-13T22:33:43.912Z,11.20
2022-10-13T22:36:14.963Z,11.20
2022-10-13T22:38:42.978Z,11.10
2022-10-13T22:41:10.947Z,11.10
2022-10-13T22:43:38.890Z,11.10
2022-10-13T22:46:07.134Z,11.10
2022-10-13T22:48:40.548Z,11.10
2022-10-13T22:51:09.801Z,11.10
2022-10-13T22:53:38.094Z,11.10
2022-10-13T22:56:07.387Z,11.10
2022-10-13T22:58:35.581Z,11.10
2022-10-13T23:01:07.325Z,11.00
2022-10-13T23:03:36.717Z,11.00
2022-10-13T23:06:05.636Z,11.00
2022-10-13T23:08:34.285Z,11.00
2022-10-13T23:11:02.198Z,11.00
2022-10-13T23:13:30.087Z,11.00
2022-10-13T23:16:02.376Z,11.10
2022-10-13T23:18:30.250Z,11.10
2022-10-13T23:20:59.622Z,11.10
2022-10-13T23:23:27.499Z,11.20
2022-10-13T23:25:55.351Z,11.20
2022-10-13T23:28:23.276Z,11.20
2022-10-13T23:30:51.314Z,11.20
2022-10-13T23:33:19.153Z,11.20
2022-10-13T23:35:54.893Z,11.20
2022-10-13T23:38:24.925Z,11.20
2022-10-13T23:40:53.159Z,11.20
2022-10-13T23:43:21.482Z,11.20
2022-10-13T23:45:49.371Z,11.20
2022-10-13T23:48:17.245Z,11.20
2022-10-13T23:50:45.122Z,11.30
2022-10-13T23:53:12.992Z,11.30
2022-10-13T23:55:42.356Z,11.30
2022-10-13T23:58:10.356Z,11.30
